Sulphur, LA

12:17 AM CST on December 09, 2016 (GMT -0600)
Sulphur

Weather History for KUXL - March, 2013

Change the Weather History Date:

Friday, March 29, 2013

  Actual Average (KLCH) Record (KLCH)
Temperature  
Mean Temperature 63 °F -  
Max Temperature 73 °F 73 °F 89 °F (1909)
Min Temperature 53 °F 55 °F 34 °F (1930)
Degree Days  
Heating Degree Days 2    
Growing Degree Days 13 (Base 50)    
Moisture  
Dew Point 58 °F    
Average Humidity 84    
Maximum Humidity 100    
Minimum Humidity 60    
Precipitation  
Precipitation 0.00 in - - ()
Sea Level Pressure  
Sea Level Pressure 30.23 in    
Wind  
Wind Speed 7 mph (SE)    
Max Wind Speed 15 mph    
Max Gust Speed 24 mph    
Visibility 10 miles    
Events      
Averages and records for this station are not official NWS values.
T = Trace of Precipitation, MM = Missing Value Source: NWS Daily Summary

Daily Weather History Graph

Daily Weather History Graph

Search for Another Location

Airport or City:

Trip Planner

Search our weather history database for the weather conditions in past years. The results will help you decide how hot, cold, wet, or windy it might be!

Date:

Astronomy

Mar. 29, 2013 Rise Set
Actual Time 7:06 AM CDT 7:30 PM CDT
Civil Twilight 6:42 AM CDT 7:54 PM CDT
Nautical Twilight 6:13 AM CDT 8:22 PM CDT
Astronomical Twilight 5:45 AM CDT 8:51 PM CDT
Moon 10:16 PM CDT (3/29) 8:28 AM CDT (3/29)
Length of Visible Light 13h 12m
Length of Day
12h 24m
Waning Gibbous, 93% of the Moon is Illuminated
Mar 29
Waning Gibbous
Apr 2
Last Quarter
Apr 10
New
Apr 18
First Quarter
Apr 25
Full

Hourly Weather History & Observations

Time (CDT) Temp. Dew Point Humidity Pressure Visibility Wind Dir Wind Speed Gust Speed Precip Events Conditions
12:15 AM 57.2 °F 55.4 °F 94% 30.27 in 10.0 mi ESE 5.8 mph - N/A   Clear
12:35 AM 57.2 °F 55.4 °F 94% 30.27 in 10.0 mi SE 4.6 mph - N/A   Clear
12:55 AM 59.0 °F 55.4 °F 88% 30.27 in 10.0 mi ESE 5.8 mph - N/A   Clear
1:15 AM 59.0 °F 55.4 °F 88% 30.26 in 10.0 mi ESE 6.9 mph - N/A   Clear
1:35 AM 59.0 °F 55.4 °F 88% 30.26 in 10.0 mi ESE 5.8 mph - N/A   Clear
1:55 AM 57.2 °F 55.4 °F 94% 30.25 in 10.0 mi ESE 5.8 mph - N/A   Clear
2:15 AM 55.4 °F 55.4 °F 100% 30.25 in 7.0 mi East 4.6 mph - N/A   Clear
2:35 AM 55.4 °F 55.4 °F 100% 30.24 in 10.0 mi East 5.8 mph - N/A   Clear
2:55 AM 55.4 °F 55.4 °F 100% 30.24 in 10.0 mi ESE 6.9 mph - N/A   Clear
3:15 AM 55.4 °F 55.4 °F 100% 30.24 in 10.0 mi ESE 5.8 mph - N/A   Clear
3:35 AM 55.4 °F 55.4 °F 100% 30.24 in 10.0 mi ESE 5.8 mph - N/A   Clear
3:55 AM 55.4 °F 55.4 °F 100% 30.24 in 10.0 mi ESE 4.6 mph - N/A   Clear
4:15 AM 55.4 °F 53.6 °F 94% 30.24 in 10.0 mi East 4.6 mph - N/A   Clear
4:35 AM 53.6 °F 53.6 °F 100% 30.24 in 7.0 mi East 4.6 mph - N/A   Clear
4:55 AM 53.6 °F 53.6 °F 100% 30.24 in 5.0 mi East 3.5 mph - N/A   Clear
5:15 AM 53.6 °F 53.6 °F 100% 30.24 in 5.0 mi East 3.5 mph - N/A   Clear
5:35 AM 53.6 °F 53.6 °F 100% 30.25 in 7.0 mi East 4.6 mph - N/A   Clear
5:55 AM 53.6 °F 53.6 °F 100% 30.25 in 5.0 mi East 4.6 mph - N/A   Clear
6:15 AM 53.6 °F 53.6 °F 100% 30.26 in 7.0 mi East 4.6 mph - N/A   Clear
6:35 AM 53.6 °F 53.6 °F 100% 30.26 in 7.0 mi East 4.6 mph - N/A   Clear
6:55 AM 55.4 °F 53.6 °F 94% 30.27 in 7.0 mi East 4.6 mph - N/A   Mostly Cloudy
7:15 AM 55.4 °F 55.4 °F 100% 30.27 in 10.0 mi East 4.6 mph - N/A   Overcast
7:35 AM 55.4 °F 55.4 °F 100% 30.27 in 10.0 mi East 5.8 mph - N/A   Overcast
7:55 AM 57.2 °F 57.2 °F 100% 30.28 in 10.0 mi East 5.8 mph - N/A   Mostly Cloudy
8:15 AM 59.0 °F 57.2 °F 94% 30.29 in 10.0 mi East 5.8 mph - N/A   Mostly Cloudy
8:35 AM 59.0 °F 59.0 °F 100% 30.29 in 10.0 mi ESE 5.8 mph - N/A   Mostly Cloudy
8:55 AM 60.8 °F 59.0 °F 94% 30.29 in 10.0 mi ESE 8.1 mph - N/A   Mostly Cloudy
9:15 AM 62.6 °F 59.0 °F 88% 30.29 in 10.0 mi ESE 9.2 mph - N/A   Scattered Clouds
9:35 AM 62.6 °F 60.8 °F 94% 30.29 in 10.0 mi ESE 9.2 mph - N/A   Clear
9:55 AM 64.4 °F 60.8 °F 88% 30.29 in 10.0 mi ESE 11.5 mph - N/A   Clear
10:15 AM 66.2 °F 60.8 °F 83% 30.30 in 10.0 mi SE 10.4 mph - N/A   Clear
10:35 AM 68.0 °F 59.0 °F 73% 30.29 in 10.0 mi SE 10.4 mph - N/A   Clear
10:55 AM 68.0 °F 59.0 °F 73% 30.28 in 10.0 mi SSE 10.4 mph - N/A   Clear
11:15 AM 69.8 °F 59.0 °F 68% 30.28 in 10.0 mi SE 9.2 mph - N/A   Clear
11:35 AM 69.8 °F 59.0 °F 68% 30.27 in 10.0 mi ESE 11.5 mph - N/A   Clear
11:55 AM 71.6 °F 59.0 °F 64% 30.27 in 10.0 mi SE 12.7 mph - N/A   Clear
12:15 PM 71.6 °F 59.0 °F 64% 30.27 in 10.0 mi SE 13.8 mph 18.4 mph N/A   Clear
12:35 PM 71.6 °F 59.0 °F 64% 30.26 in 10.0 mi South 12.7 mph - N/A   Clear
12:55 PM 71.6 °F 57.2 °F 60% 30.25 in 10.0 mi SSE 11.5 mph - N/A   Clear
1:15 PM 71.6 °F 59.0 °F 64% 30.24 in 10.0 mi SE 9.2 mph - N/A   Clear
1:35 PM 71.6 °F 59.0 °F 64% 30.24 in 10.0 mi SSE 12.7 mph - N/A   Clear
1:55 PM 71.6 °F 59.0 °F 64% 30.22 in 10.0 mi SSE 10.4 mph 18.4 mph N/A   Clear
2:15 PM 73.4 °F 59.0 °F 61% 30.22 in 10.0 mi SSE 13.8 mph - N/A   Clear
2:35 PM 73.4 °F 59.0 °F 61% 30.21 in 10.0 mi South 12.7 mph 16.1 mph N/A   Scattered Clouds
2:55 PM 73.4 °F 59.0 °F 61% 30.20 in 10.0 mi SSE 15.0 mph 19.6 mph N/A   Scattered Clouds
3:15 PM 73.4 °F 59.0 °F 61% 30.20 in 10.0 mi SSE 13.8 mph - N/A   Clear
3:35 PM 73.4 °F 59.0 °F 61% 30.19 in 10.0 mi South 12.7 mph 16.1 mph N/A   Clear
3:55 PM 71.6 °F 59.0 °F 64% 30.18 in 10.0 mi SSE 15.0 mph 19.6 mph N/A   Scattered Clouds
4:15 PM 71.6 °F 59.0 °F 64% 30.19 in 10.0 mi SSE 12.7 mph 16.1 mph N/A   Scattered Clouds
4:35 PM 71.6 °F 59.0 °F 64% 30.18 in 10.0 mi South 15.0 mph 24.2 mph N/A   Scattered Clouds
4:55 PM 71.6 °F 57.2 °F 60% 30.18 in 10.0 mi South 13.8 mph - N/A   Scattered Clouds
5:15 PM 71.6 °F 59.0 °F 64% 30.19 in 10.0 mi South 15.0 mph - N/A   Clear
5:35 PM 71.6 °F 59.0 °F 64% 30.19 in 10.0 mi South 13.8 mph 18.4 mph N/A   Clear
5:55 PM 69.8 °F 59.0 °F 68% 30.20 in 10.0 mi South 11.5 mph 17.3 mph N/A   Clear
6:15 PM 69.8 °F 59.0 °F 68% 30.20 in 10.0 mi South 10.4 mph - N/A   Clear
6:35 PM 68.0 °F 59.0 °F 73% 30.20 in 10.0 mi South 9.2 mph - N/A   Clear
6:55 PM 68.0 °F 59.0 °F 73% 30.19 in 10.0 mi South 6.9 mph - N/A   Clear
7:15 PM 64.4 °F 59.0 °F 83% 30.19 in 10.0 mi SSE 5.8 mph - N/A   Clear
7:35 PM 64.4 °F 59.0 °F 83% 30.20 in 10.0 mi SSE 5.8 mph - N/A   Clear
7:55 PM 62.6 °F 59.0 °F 88% 30.19 in 10.0 mi SE 3.5 mph - N/A   Clear
8:15 PM 62.6 °F 59.0 °F 88% 30.20 in 10.0 mi ESE 3.5 mph - N/A   Clear
8:35 PM 62.6 °F 59.0 °F 88% 30.20 in 10.0 mi ESE 4.6 mph - N/A   Clear
8:55 PM 62.6 °F 60.8 °F 94% 30.20 in 10.0 mi ESE 4.6 mph - N/A   Clear
9:15 PM 62.6 °F 60.8 °F 94% 30.20 in 10.0 mi ESE 3.5 mph - N/A   Clear
9:35 PM 62.6 °F 60.8 °F 94% 30.20 in 10.0 mi Calm Calm - N/A   Clear
9:55 PM 60.8 °F 59.0 °F 94% 30.20 in 10.0 mi ESE 3.5 mph - N/A   Clear
10:15 PM 62.6 °F 60.8 °F 94% 30.20 in 10.0 mi SE 5.8 mph - N/A   Clear
10:35 PM 60.8 °F 60.8 °F 100% 30.20 in 10.0 mi SE 4.6 mph - N/A   Clear
10:55 PM 60.8 °F 60.8 °F 100% 30.20 in 10.0 mi SSE 4.6 mph - N/A   Clear
11:15 PM 60.8 °F 59.0 °F 94% 30.20 in 10.0 mi SE 3.5 mph - N/A   Clear
11:35 PM 60.8 °F 60.8 °F 100% 30.19 in 10.0 mi SE 3.5 mph - N/A   Clear
11:55 PM 60.8 °F 60.8 °F 100% 30.19 in 10.0 mi SE 3.5 mph - N/A   Clear